createdAt,value
2017-08-04T00:01:34.098Z,23.10
2017-08-04T00:04:00.070Z,23.10
2017-08-04T00:06:26.030Z,23.10
2017-08-04T00:08:52.059Z,23.20
2017-08-04T00:11:18.013Z,23.20
2017-08-04T00:13:43.977Z,23.20
2017-08-04T00:16:10.694Z,23.20
2017-08-04T00:21:37.266Z,23.20
2017-08-04T00:24:03.262Z,23.20
2017-08-04T00:26:29.957Z,23.10
2017-08-04T00:28:55.925Z,23.10
2017-08-04T00:31:21.894Z,22.90
2017-08-04T00:33:47.854Z,22.90
2017-08-04T00:36:13.827Z,22.80
2017-08-04T00:38:40.563Z,22.70
2017-08-04T00:41:06.525Z,22.70
2017-08-04T00:43:32.497Z,22.80
2017-08-04T00:45:58.923Z,22.70
2017-08-04T00:48:24.863Z,22.80
2017-08-04T00:50:50.820Z,22.80
2017-08-04T00:53:17.502Z,22.80
2017-08-04T00:55:43.483Z,22.80
2017-08-04T00:58:09.431Z,22.70
2017-08-04T01:00:35.383Z,22.60
2017-08-04T01:03:01.493Z,22.70
2017-08-04T01:05:27.495Z,22.60
2017-08-04T01:07:53.464Z,22.30
2017-08-04T01:10:19.394Z,22.40
2017-08-04T01:12:45.386Z,22.30
2017-08-04T01:15:11.335Z,22.20
2017-08-04T01:17:37.309Z,22.20
2017-08-04T01:20:03.276Z,22.30
2017-08-04T01:22:29.990Z,22.20
2017-08-04T01:24:55.941Z,22.20
2017-08-04T01:27:22.646Z,22.60
2017-08-04T01:29:48.582Z,22.60
2017-08-04T01:32:14.564Z,22.60
2017-08-04T01:34:41.259Z,22.60
2017-08-04T01:37:07.201Z,22.60
2017-08-04T01:39:33.178Z,22.30
2017-08-04T01:41:59.126Z,22.30
2017-08-04T01:44:25.093Z,22.20
2017-08-04T01:46:51.060Z,22.10
2017-08-04T01:49:17.011Z,22.30
2017-08-04T01:51:42.958Z,22.40
2017-08-04T01:54:08.914Z,22.40
2017-08-04T01:56:34.913Z,22.40
2017-08-04T01:59:00.868Z,22.50
2017-08-04T02:01:26.901Z,22.60
2017-08-04T02:03:52.861Z,22.30
2017-08-04T02:06:18.813Z,22.30
2017-08-04T02:08:44.788Z,22.30
2017-08-04T02:11:10.772Z,22.10
2017-08-04T02:13:36.754Z,22.20
2017-08-04T02:16:02.690Z,22.20
2017-08-04T02:18:29.394Z,22.40
2017-08-04T02:20:55.347Z,22.30
2017-08-04T02:23:22.033Z,22.30
2017-08-04T02:25:47.956Z,22.30
2017-08-04T02:28:13.905Z,22.10
2017-08-04T02:33:37.725Z,22.20
2017-08-04T02:36:03.695Z,22.30
2017-08-04T02:38:29.693Z,22.40
2017-08-04T02:40:56.370Z,22.50
2017-08-04T02:43:22.315Z,22.50
2017-08-04T02:45:48.254Z,22.50
2017-08-04T02:48:14.238Z,22.50
2017-08-04T02:50:40.198Z,22.40
2017-08-04T02:53:06.125Z,22.20
2017-08-04T02:55:32.064Z,22.00
2017-08-04T02:57:58.004Z,21.70
2017-08-04T03:00:23.948Z,21.50
2017-08-04T03:02:50.638Z,21.40
2017-08-04T03:05:16.585Z,21.40
2017-08-04T03:07:42.532Z,21.40
2017-08-04T03:10:08.470Z,21.40
2017-08-04T03:12:35.217Z,21.10
2017-08-04T03:15:01.894Z,21.10
2017-08-04T03:17:27.827Z,21.10
2017-08-04T03:19:53.753Z,21.10
2017-08-04T03:22:19.670Z,21.10
2017-08-04T03:24:45.591Z,21.10
2017-08-04T03:27:11.526Z,21.10
2017-08-04T03:29:37.455Z,21.00
2017-08-04T03:32:03.382Z,21.00
2017-08-04T03:34:29.317Z,21.10
2017-08-04T03:36:55.233Z,21.10
2017-08-04T03:39:21.177Z,21.00
2017-08-04T03:41:47.090Z,20.80
2017-08-04T03:44:13.042Z,20.80
2017-08-04T03:46:38.986Z,20.70
2017-08-04T03:49:04.902Z,20.70
2017-08-04T03:51:30.817Z,20.70
2017-08-04T03:53:56.757Z,20.70
2017-08-04T03:56:22.678Z,20.80
2017-08-04T03:58:48.625Z,21.00
2017-08-04T04:01:14.578Z,21.10
2017-08-04T04:03:40.493Z,21.40
2017-08-04T04:06:06.447Z,21.30
2017-08-04T04:08:32.381Z,21.40
2017-08-04T04:10:58.302Z,21.60
2017-08-04T04:13:24.243Z,21.80
2017-08-04T04:15:50.183Z,21.90
2017-08-04T04:18:16.124Z,22.00
2017-08-04T04:20:42.062Z,22.00
2017-08-04T04:23:08.020Z,22.10
2017-08-04T04:25:34.704Z,21.90
2017-08-04T04:28:00.637Z,21.90
2017-08-04T04:30:26.607Z,21.80
2017-08-04T04:32:52.629Z,21.50
2017-08-04T04:35:18.870Z,21.20
2017-08-04T04:37:44.846Z,21.30
2017-08-04T04:40:10.773Z,21.20
2017-08-04T04:42:36.725Z,20.80
2017-08-04T04:45:02.725Z,20.90
2017-08-04T04:47:28.686Z,21.00
2017-08-04T04:49:54.602Z,21.20
2017-08-04T04:52:20.541Z,21.30
2017-08-04T04:54:46.451Z,21.40
2017-08-04T04:57:12.360Z,21.40
2017-08-04T04:59:38.308Z,21.40
2017-08-04T05:02:04.241Z,21.40
2017-08-04T05:04:30.219Z,21.40
2017-08-04T05:06:56.937Z,21.70
2017-08-04T05:09:22.874Z,21.70
2017-08-04T05:11:48.823Z,21.90
2017-08-04T05:14:15.505Z,21.30
2017-08-04T05:16:41.478Z,21.30
2017-08-04T05:19:07.427Z,21.40
2017-08-04T05:21:34.114Z,21.50
2017-08-04T05:24:00.041Z,21.50
2017-08-04T05:26:25.967Z,21.70
2017-08-04T05:28:51.908Z,21.70
2017-08-04T05:31:17.857Z,21.70
2017-08-04T05:33:43.907Z,21.70
2017-08-04T05:36:32.317Z,21.80
2017-08-04T05:38:58.282Z,21.80
2017-08-04T05:41:24.954Z,21.70
2017-08-04T05:43:50.928Z,21.70
2017-08-04T05:46:16.868Z,21.90
2017-08-04T05:48:42.803Z,21.90
2017-08-04T05:51:09.477Z,22.00
2017-08-04T05:53:35.488Z,22.00
2017-08-04T05:56:02.144Z,22.10
2017-08-04T05:58:28.099Z,22.10
2017-08-04T06:00:54.042Z,22.10
2017-08-04T06:03:19.978Z,22.20
2017-08-04T06:05:45.907Z,22.10
2017-08-04T06:08:11.839Z,22.00
2017-08-04T06:10:37.778Z,22.00
2017-08-04T06:13:04.443Z,22.10
2017-08-04T06:15:30.377Z,22.10
2017-08-04T06:17:56.325Z,22.30
2017-08-04T06:20:22.258Z,22.50
2017-08-04T06:22:48.190Z,22.30
2017-08-04T06:25:14.125Z,22.10
2017-08-04T06:27:40.121Z,22.10
2017-08-04T06:33:06.568Z,22.00
2017-08-04T06:35:36.877Z,22.00
2017-08-04T06:38:02.813Z,21.90
2017-08-04T06:40:28.746Z,22.00
2017-08-04T06:42:54.721Z,22.00
2017-08-04T06:45:20.660Z,22.00
2017-08-04T06:47:47.354Z,22.00
2017-08-04T06:50:25.590Z,22.10
2017-08-04T06:53:03.944Z,22.00
2017-08-04T06:55:34.760Z,22.00
2017-08-04T06:58:01.436Z,22.20
2017-08-04T07:00:27.359Z,22.10
2017-08-04T07:02:54.021Z,22.40
2017-08-04T07:05:19.961Z,22.40
2017-08-04T07:07:45.914Z,22.50
2017-08-04T07:10:11.821Z,22.60
2017-08-04T07:12:37.736Z,22.80
2017-08-04T07:15:03.686Z,22.50
2017-08-04T07:17:39.909Z,22.40
2017-08-04T07:20:05.872Z,22.50
2017-08-04T07:22:31.826Z,22.60
2017-08-04T07:24:57.804Z,22.80
2017-08-04T07:27:23.754Z,22.80
2017-08-04T07:29:53.382Z,22.90
2017-08-04T07:32:19.357Z,23.10
2017-08-04T07:34:45.287Z,23.10
2017-08-04T07:37:11.206Z,23.00
2017-08-04T07:39:43.370Z,23.20
2017-08-04T07:42:09.289Z,23.20
2017-08-04T07:44:35.970Z,23.30
2017-08-04T07:47:01.906Z,23.30
2017-08-04T07:49:27.841Z,23.30
2017-08-04T07:51:53.737Z,23.10
2017-08-04T07:54:19.677Z,23.20
2017-08-04T07:56:45.606Z,23.50
2017-08-04T07:59:11.523Z,23.80
2017-08-04T08:01:37.450Z,23.90
2017-08-04T08:04:03.368Z,23.90
2017-08-04T08:06:29.312Z,23.70
2017-08-04T08:08:55.249Z,23.40
2017-08-04T08:11:21.173Z,23.50
2017-08-04T08:13:47.118Z,23.40
2017-08-04T08:16:13.077Z,23.40
2017-08-04T08:18:39.009Z,23.50
2017-08-04T08:21:04.970Z,23.60
2017-08-04T08:23:30.954Z,23.80
2017-08-04T08:25:56.907Z,23.80
2017-08-04T08:28:22.841Z,23.80
2017-08-04T08:30:48.797Z,23.90
2017-08-04T08:33:14.731Z,23.70
2017-08-04T08:35:40.704Z,23.80
2017-08-04T08:38:07.394Z,24.10
2017-08-04T08:40:33.325Z,24.10
2017-08-04T08:42:59.329Z,24.20
2017-08-04T08:45:25.256Z,24.20
2017-08-04T08:48:16.002Z,24.20
2017-08-04T08:50:41.971Z,24.40
2017-08-04T08:53:07.903Z,24.70
2017-08-04T08:55:33.855Z,24.80
2017-08-04T08:57:59.797Z,24.80
2017-08-04T09:00:25.738Z,24.80
2017-08-04T09:02:51.678Z,24.70
2017-08-04T09:05:17.642Z,24.70
2017-08-04T09:07:49.473Z,24.80
2017-08-04T09:10:16.142Z,24.70
2017-08-04T09:12:42.073Z,24.70
2017-08-04T09:15:08.001Z,24.50
2017-08-04T09:17:33.945Z,24.40
2017-08-04T09:19:59.906Z,24.50
2017-08-04T09:22:25.906Z,24.60
2017-08-04T09:24:51.830Z,24.40
2017-08-04T09:27:17.778Z,24.50
2017-08-04T09:29:43.706Z,24.50
2017-08-04T09:32:09.651Z,24.70
2017-08-04T09:34:35.605Z,25.00
2017-08-04T09:37:01.530Z,25.10
2017-08-04T09:39:27.573Z,24.90
2017-08-04T09:41:53.486Z,24.80
2017-08-04T09:44:22.362Z,24.90
2017-08-04T09:46:48.324Z,24.90
2017-08-04T09:49:14.235Z,24.90
2017-08-04T09:51:40.915Z,25.00
2017-08-04T09:54:06.872Z,24.90
2017-08-04T09:56:32.814Z,24.60
2017-08-04T09:58:58.855Z,24.60
2017-08-04T10:01:25.537Z,24.80
2017-08-04T10:03:51.486Z,24.70
2017-08-04T10:06:17.420Z,24.70
2017-08-04T10:08:43.345Z,24.70
2017-08-04T10:11:09.296Z,24.50
2017-08-04T10:13:35.238Z,24.30
2017-08-04T10:16:01.935Z,24.80
2017-08-04T10:18:27.873Z,24.80
2017-08-04T10:20:53.802Z,25.10
2017-08-04T10:23:21.744Z,25.50
2017-08-04T10:25:58.048Z,25.30
2017-08-04T10:28:23.998Z,25.60
2017-08-04T10:30:49.922Z,25.80
2017-08-04T10:33:15.870Z,25.70
2017-08-04T10:35:41.806Z,26.00
2017-08-04T10:41:02.845Z,26.30
2017-08-04T10:43:42.048Z,26.40
2017-08-04T10:46:12.463Z,26.70
2017-08-04T10:48:39.148Z,26.80
2017-08-04T10:51:06.181Z,26.70
2017-08-04T10:53:36.284Z,26.80
2017-08-04T10:59:03.238Z,26.60
2017-08-04T11:01:29.928Z,26.80
2017-08-04T11:03:56.404Z,26.50
2017-08-04T11:06:22.417Z,26.50
2017-08-04T11:08:49.406Z,26.60
2017-08-04T11:11:22.848Z,26.80
2017-08-04T11:13:48.798Z,27.10
2017-08-04T11:16:14.776Z,27.40
2017-08-04T11:18:40.703Z,27.10
2017-08-04T11:21:13.078Z,26.80
2017-08-04T11:23:38.997Z,26.70
2017-08-04T11:26:04.939Z,26.60
2017-08-04T11:28:30.860Z,26.90
2017-08-04T11:31:00.521Z,27.00
2017-08-04T11:33:32.643Z,26.90
2017-08-04T11:35:58.578Z,26.50
2017-08-04T11:38:49.383Z,26.30
2017-08-04T11:41:25.878Z,26.60
2017-08-04T11:43:58.241Z,26.80
2017-08-04T11:46:27.569Z,26.70
2017-08-04T11:48:53.521Z,26.80
2017-08-04T11:51:42.950Z,27.30
2017-08-04T11:54:10.979Z,27.30
2017-08-04T11:56:59.688Z,26.90
2017-08-04T11:59:39.994Z,26.80
2017-08-04T12:02:05.943Z,26.90
2017-08-04T12:04:31.902Z,27.10
2017-08-04T12:07:04.831Z,27.30
2017-08-04T12:09:39.140Z,27.30
2017-08-04T12:12:15.514Z,27.20
2017-08-04T12:15:02.872Z,27.30
2017-08-04T12:17:47.503Z,27.30
2017-08-04T12:20:38.074Z,27.60
2017-08-04T12:23:07.567Z,27.50
2017-08-04T12:25:43.824Z,27.40
2017-08-04T12:28:18.165Z,27.30
2017-08-04T12:33:43.990Z,27.30
2017-08-04T12:36:31.467Z,27.50
2017-08-04T12:41:50.668Z,27.90
2017-08-04T12:47:23.413Z,27.50
2017-08-04T12:50:09.718Z,27.30
2017-08-04T12:55:29.945Z,27.60
2017-08-04T12:57:56.068Z,27.60
2017-08-04T13:00:29.189Z,28.20
2017-08-04T13:03:19.412Z,28.20
2017-08-04T13:05:45.364Z,28.70
2017-08-04T13:08:20.332Z,29.20
2017-08-04T13:11:10.757Z,29.20
2017-08-04T13:13:52.241Z,28.70
2017-08-04T13:16:25.715Z,28.00
2017-08-04T13:18:58.994Z,27.80
2017-08-04T13:21:33.420Z,27.80
2017-08-04T13:24:07.750Z,27.90
2017-08-04T13:26:42.045Z,27.90
2017-08-04T13:29:09.334Z,28.00
2017-08-04T13:31:35.296Z,27.90
2017-08-04T13:34:18.019Z,27.80
2017-08-04T13:39:38.728Z,28.00
2017-08-04T13:42:25.912Z,27.70
2017-08-04T13:45:07.457Z,27.70
2017-08-04T13:47:33.406Z,27.60
2017-08-04T13:50:03.284Z,27.80
2017-08-04T13:58:19.810Z,27.70
2017-08-04T14:00:54.131Z,28.50
2017-08-04T14:03:21.163Z,28.50
2017-08-04T14:05:48.221Z,28.80
2017-08-04T14:08:14.243Z,28.90
2017-08-04T14:11:04.496Z,29.00
2017-08-04T14:13:36.010Z,29.00
2017-08-04T14:16:01.963Z,28.50
2017-08-04T14:30:27.110Z,28.70
2017-08-04T14:32:56.543Z,29.30
2017-08-04T14:38:39.344Z,29.60
2017-08-04T14:46:54.133Z,30.60
2017-08-04T14:49:26.328Z,31.10
2017-08-04T14:51:54.384Z,31.50
2017-08-04T14:54:29.538Z,31.70
2017-08-04T14:56:55.576Z,31.80
2017-08-04T14:59:23.613Z,32.20
2017-08-04T15:01:59.769Z,32.60
2017-08-04T15:04:26.472Z,32.90
2017-08-04T15:06:56.428Z,32.90
2017-08-04T15:09:23.472Z,32.80
2017-08-04T15:17:53.299Z,32.60
2017-08-04T15:20:19.350Z,32.60
2017-08-04T15:23:01.003Z,32.90
2017-08-04T15:25:27.963Z,32.80
2017-08-04T15:31:05.125Z,32.70
2017-08-04T15:33:38.448Z,32.50
2017-08-04T15:36:04.418Z,32.60
2017-08-04T15:44:17.365Z,32.00
2017-08-04T15:46:43.392Z,31.20
2017-08-04T15:49:11.483Z,30.30
2017-08-04T15:51:37.493Z,29.90
2017-08-04T15:54:08.449Z,29.80
2017-08-04T15:56:35.466Z,30.00
2017-08-04T15:59:08.352Z,29.70
2017-08-04T16:04:28.367Z,29.50
2017-08-04T16:07:02.403Z,29.90
2017-08-04T16:09:36.759Z,30.00
2017-08-04T16:12:09.099Z,29.90
2017-08-04T16:14:45.463Z,29.70
2017-08-04T16:17:18.862Z,29.00
2017-08-04T16:19:52.241Z,28.80
2017-08-04T16:22:27.478Z,28.40
2017-08-04T16:24:59.862Z,28.70
2017-08-04T16:27:36.006Z,29.10
2017-08-04T16:30:08.487Z,29.80
2017-08-04T16:32:34.494Z,30.40
2017-08-04T16:35:16.134Z,30.60
2017-08-04T16:37:50.445Z,30.60
2017-08-04T16:40:26.889Z,30.90
2017-08-04T16:42:59.685Z,31.60
2017-08-04T16:45:34.408Z,31.90
2017-08-04T16:48:08.844Z,32.20
2017-08-04T16:53:27.981Z,32.00
2017-08-04T16:58:51.862Z,30.80
2017-08-04T17:01:23.227Z,30.60
2017-08-04T17:06:57.266Z,30.30
2017-08-04T17:09:23.248Z,29.80
2017-08-04T17:11:56.905Z,30.30
2017-08-04T17:14:22.883Z,30.30
2017-08-04T17:22:49.372Z,29.80
2017-08-04T17:28:10.373Z,29.20
2017-08-04T17:36:36.342Z,28.10
2017-08-04T17:39:28.801Z,28.10
2017-08-04T17:42:02.363Z,28.10
2017-08-04T17:44:36.674Z,27.80
2017-08-04T17:47:11.007Z,27.50
2017-08-04T17:49:42.427Z,27.10
2017-08-04T17:52:12.705Z,26.90
2017-08-04T17:54:54.734Z,26.80
2017-08-04T17:57:27.327Z,26.30
2017-08-04T18:00:01.578Z,26.20
2017-08-04T18:02:42.156Z,26.20
2017-08-04T18:05:08.274Z,26.10
2017-08-04T18:07:40.850Z,26.40
2017-08-04T18:10:17.245Z,26.30
2017-08-04T18:12:51.674Z,26.40
2017-08-04T18:15:22.018Z,26.90
2017-08-04T18:18:01.391Z,27.20
2017-08-04T18:20:34.796Z,27.40
2017-08-04T18:23:00.747Z,27.50
2017-08-04T18:25:42.539Z,27.30
2017-08-04T18:28:13.109Z,27.30
2017-08-04T18:30:50.570Z,27.00
2017-08-04T18:33:24.944Z,26.80
2017-08-04T18:35:59.282Z,26.50
2017-08-04T18:38:26.307Z,25.90
2017-08-04T18:41:07.939Z,25.80
2017-08-04T18:43:40.413Z,26.00
2017-08-04T18:52:07.774Z,25.90
2017-08-04T18:54:39.170Z,25.70
2017-08-04T18:57:05.166Z,25.70
2017-08-04T18:59:52.987Z,25.70
2017-08-04T19:08:12.665Z,25.60
2017-08-04T19:10:58.965Z,25.50
2017-08-04T19:19:37.497Z,24.90
2017-08-04T19:22:07.147Z,24.90
2017-08-04T19:24:46.319Z,24.60
2017-08-04T19:27:12.286Z,24.50
2017-08-04T19:29:54.028Z,24.60
2017-08-04T19:32:28.565Z,24.50
2017-08-04T19:35:05.203Z,24.40
2017-08-04T19:37:33.288Z,24.30
2017-08-04T19:40:06.693Z,24.30
2017-08-04T19:42:43.079Z,24.00
2017-08-04T19:45:15.217Z,23.90
2017-08-04T19:47:49.729Z,23.90
2017-08-04T19:50:26.302Z,23.90
2017-08-04T19:52:58.594Z,24.10
2017-08-04T19:55:27.803Z,24.00
2017-08-04T20:09:27.423Z,23.60
2017-08-04T20:11:53.417Z,23.60
2017-08-04T20:22:52.997Z,23.50
2017-08-04T20:25:22.267Z,23.50
2017-08-04T20:30:53.226Z,23.50
2017-08-04T20:33:29.601Z,23.50
2017-08-04T20:36:02.942Z,23.50
2017-08-04T20:38:29.673Z,23.30
2017-08-04T20:44:04.052Z,23.40
2017-08-04T20:46:50.397Z,23.50
2017-08-04T20:49:17.483Z,23.40
2017-08-04T20:51:51.232Z,23.10
2017-08-04T20:54:27.709Z,23.00
2017-08-04T20:57:04.251Z,23.00
2017-08-04T20:59:33.557Z,23.30
2017-08-04T21:02:05.617Z,23.40
2017-08-04T21:04:51.062Z,23.30
2017-08-04T21:07:22.599Z,23.10
2017-08-04T21:09:57.674Z,23.00
2017-08-04T21:12:29.113Z,23.00
2017-08-04T21:14:56.942Z,23.40
2017-08-04T21:17:40.762Z,23.40
2017-08-04T21:20:17.143Z,23.20
2017-08-04T21:22:52.158Z,22.90
2017-08-04T21:25:26.778Z,22.80
2017-08-04T21:27:52.773Z,22.50
2017-08-04T21:30:28.366Z,22.50
2017-08-04T21:32:54.344Z,22.50
2017-08-04T21:35:38.069Z,22.40
2017-08-04T21:38:04.825Z,22.40
2017-08-04T21:40:34.872Z,22.80
2017-08-04T21:43:20.381Z,22.70
2017-08-04T21:46:08.015Z,22.50
2017-08-04T21:48:40.796Z,22.50
2017-08-04T21:51:06.778Z,22.30
2017-08-04T21:53:33.797Z,22.20
2017-08-04T21:56:00.542Z,22.30
2017-08-04T21:58:34.907Z,22.30
2017-08-04T22:01:01.941Z,22.30
2017-08-04T22:03:27.906Z,22.10
2017-08-04T22:05:53.841Z,22.30
2017-08-04T22:08:19.809Z,22.00
2017-08-04T22:10:46.496Z,21.80
2017-08-04T22:13:12.454Z,21.80
2017-08-04T22:15:39.145Z,21.70
2017-08-04T22:18:05.085Z,21.60
2017-08-04T22:20:31.068Z,21.50
2017-08-04T22:22:57.813Z,21.50
2017-08-04T22:25:23.766Z,21.50
2017-08-04T22:27:49.753Z,21.40
2017-08-04T22:30:15.697Z,21.10
2017-08-04T22:32:42.382Z,20.80
2017-08-04T22:35:08.360Z,20.80
2017-08-04T22:37:35.105Z,20.70
2017-08-04T22:40:01.051Z,20.70
2017-08-04T22:42:27.000Z,20.80
2017-08-04T22:44:52.950Z,20.80
2017-08-04T22:47:18.890Z,20.90
2017-08-04T22:49:44.843Z,20.80
2017-08-04T22:52:10.786Z,20.70
2017-08-04T22:54:37.470Z,20.80
2017-08-04T22:57:03.418Z,20.80
2017-08-04T22:59:29.352Z,20.70
2017-08-04T23:01:55.289Z,20.50
2017-08-04T23:04:21.249Z,20.50
2017-08-04T23:06:47.957Z,20.70
2017-08-04T23:09:13.888Z,20.60
2017-08-04T23:11:39.845Z,20.60
2017-08-04T23:14:05.800Z,20.70
2017-08-04T23:16:31.786Z,20.80
2017-08-04T23:18:57.730Z,21.10
2017-08-04T23:21:24.425Z,21.50
2017-08-04T23:23:50.380Z,21.40
2017-08-04T23:26:17.068Z,21.60
2017-08-04T23:28:43.009Z,21.60
2017-08-04T23:31:08.970Z,21.70
2017-08-04T23:33:34.915Z,21.70
2017-08-04T23:36:00.862Z,21.60
2017-08-04T23:38:26.798Z,21.70
2017-08-04T23:40:52.752Z,21.70
2017-08-04T23:43:18.684Z,21.60
2017-08-04T23:45:44.646Z,21.60
2017-08-04T23:48:11.366Z,21.50
2017-08-04T23:50:37.322Z,21.50
2017-08-04T23:53:04.032Z,21.50
2017-08-04T23:55:29.977Z,21.40
2017-08-04T23:57:55.941Z,21.40
